Date,TemperatureHighF,TemperatureAvgF,TemperatureLowF,DewpointHighF,DewpointAvgF,DewpointLowF,HumidityHigh,HumidityAvg,HumidityLow,PressureMaxIn,PressureMinIn,WindSpeedMaxMPH,WindSpeedAvgMPH,GustSpeedMaxMPH,PrecipitationSumIn
2013-1-1,76.0,70.0,64.0,60.0,58.0,55.0,72,65,57,30.35,30.27,18,14,0,0.00
2013-1-2,70.0,67.6,65.0,60.0,57.7,54.0,80,70,64,30.30,30.23,20,16,0,0.00
2013-1-3,66.0,66.0,66.0,57.0,57.0,57.0,71,71,71,30.23,30.22,25,19,0,0.00
2013-1-4,63.0,62.6,62.0,55.0,52.7,49.0,79,71,60,30.50,30.42,23,17,0,0.00
2013-1-5,62.0,58.2,54.0,55.0,51.1,49.0,88,77,68,30.53,30.49,21,13,0,0.00
2013-1-6,55.0,52.5,48.0,51.0,48.4,45.0,93,87,71,30.50,30.40,28,16,0,0.00
2013-1-7,50.0,49.6,49.0,45.0,43.3,42.0,86,79,74,30.40,30.33,14,11,0,0.00
2013-1-11,53.0,51.2,50.0,46.0,43.6,42.0,86,76,69,30.12,29.85,46,28,0,0.00
2013-1-12,53.0,51.1,50.0,48.0,42.6,40.0,93,73,63,30.18,29.97,46,39,0,0.00
2013-1-13,60.0,57.3,53.0,55.0,50.3,43.0,83,78,69,30.44,30.30,43,31,0,0.00
2013-1-14,63.0,62.8,62.0,60.0,59.0,57.0,90,87,81,30.32,30.20,32,30,0,0.00
2013-1-15,67.0,65.6,64.0,64.0,62.6,62.0,92,90,84,30.08,29.82,52,43,0,0.00
2013-1-16,68.0,67.9,67.0,63.0,61.6,60.0,83,80,74,29.78,29.70,58,37,0,0.00
2013-1-17,71.0,69.1,68.0,64.0,62.3,59.0,86,78,72,30.11,29.97,25,23,0,0.00
2013-1-18,75.0,72.5,71.0,65.0,63.3,61.0,77,73,70,30.19,30.08,23,18,0,0.00
2013-1-19,80.0,76.1,73.0,67.0,65.2,63.0,74,69,64,30.11,30.01,22,19,0,0.00
2013-1-20,76.0,75.1,75.0,68.0,67.1,67.0,75,75,75,30.03,30.00,22,19,0,0.00
2013-1-21,79.0,78.4,78.0,73.0,72.2,71.0,84,81,76,29.99,29.96,29,24,0,0.00
2013-1-22,79.0,79.0,79.0,71.0,71.0,71.0,76,76,76,30.02,30.02,25,25,0,0.00
2013-1-23,79.0,78.0,77.0,69.0,69.0,69.0,75,74,72,29.99,29.96,37,29,0,0.00
2013-1-24,79.0,78.2,77.0,72.0,71.4,71.0,83,79,76,29.95,29.95,30,29,0,0.00
2013-1-25,79.0,79.0,79.0,72.0,71.2,68.0,80,77,69,29.99,29.95,18,17,0,0.00
2013-1-26,81.0,79.8,79.0,74.0,73.6,73.0,84,81,76,29.98,29.91,26,22,0,0.00
2013-1-27,80.0,80.0,80.0,73.0,71.7,70.0,80,76,73,29.95,29.93,32,29,0,0.00
2013-1-28,82.0,79.8,77.0,75.0,73.2,72.0,85,79,73,30.02,29.97,38,29,0,0.00
2013-1-29,79.0,78.0,77.0,70.0,68.5,67.0,73,72,71,29.97,29.96,26,20,0,0.00
2013-1-30,78.0,78.0,78.0,73.0,72.5,72.0,84,82,81,30.05,29.97,32,32,0,0.00
2013-2-1,79.0,77.8,76.0,72.0,71.1,69.0,87,80,72,29.98,29.94,37,32,0,0.00
2013-2-2,77.0,77.0,77.0,66.0,66.0,66.0,68,68,68,30.02,29.99,26,21,0,0.00
2013-2-4,79.0,78.1,76.0,66.0,65.3,65.0,67,64,62,30.21,30.04,23,19,0,0.00
2013-2-5,76.0,76.0,76.0,68.0,68.0,68.0,75,75,75,29.95,29.95,25,25,0,0.00
2013-2-6,77.0,77.0,77.0,70.0,70.0,70.0,79,79,79,29.92,29.92,29,29,0,0.00
2013-2-8,77.0,77.0,77.0,69.0,69.0,69.0,75,75,75,29.92,29.90,21,18,0,0.00
2013-2-9,79.0,77.3,75.0,74.0,71.7,70.0,84,82,80,29.93,29.89,23,19,0,0.00
2013-2-10,79.0,78.3,78.0,74.0,73.3,73.0,84,84,84,29.94,29.90,30,21,0,0.00
2013-2-11,81.0,79.0,78.0,73.0,72.0,71.0,84,79,73,29.98,29.91,32,30,0,0.00
2013-2-12,79.0,78.3,77.0,74.0,71.8,70.0,84,80,76,29.99,29.90,37,27,0,0.00
2013-2-13,79.0,79.0,79.0,74.0,74.0,74.0,84,84,84,29.94,29.94,18,18,0,0.00
2013-2-14,79.0,79.0,79.0,72.0,72.0,72.0,80,80,80,29.93,29.93,25,25,0,0.00
2013-2-15,79.0,77.3,75.0,74.0,72.9,71.0,87,86,83,30.00,29.98,31,28,0,0.00
2013-2-16,77.0,77.0,77.0,72.0,72.0,72.0,83,83,83,30.03,30.01,28,23,0,0.00
2013-2-17,77.0,77.0,77.0,72.0,72.0,72.0,83,83,83,30.01,30.01,24,24,0,0.00
2013-2-18,79.0,78.3,78.0,72.0,71.3,71.0,80,80,80,30.01,30.00,41,34,0,0.00
2013-2-19,77.0,77.0,77.0,72.0,71.0,70.0,83,81,79,30.03,29.99,39,38,0,0.00
2013-2-20,79.0,79.0,79.0,71.0,71.0,71.0,76,76,76,29.93,29.93,25,25,0,0.00
2013-2-21,79.0,79.0,79.0,71.0,71.0,71.0,76,76,76,29.93,29.93,25,25,0,0.00
2013-2-22,79.0,78.3,77.0,75.0,73.7,72.0,87,85,83,29.96,29.90,21,19,0,0.00
2013-2-23,79.0,79.0,79.0,74.0,74.0,74.0,84,84,84,29.92,29.92,21,21,0,0.00
2013-2-24,80.0,80.0,80.0,74.0,74.0,74.0,84,84,84,29.86,29.78,38,35,0,0.00
2013-2-25,79.0,79.0,79.0,74.0,73.4,72.0,84,83,80,29.90,29.83,30,26,0,0.00
2013-2-26,79.0,79.0,79.0,72.0,72.0,72.0,80,80,80,29.97,29.97,21,21,0,0.00
2013-3-1,79.0,78.1,77.0,74.0,71.4,69.0,84,80,75,29.97,29.90,23,12,0,0.00
2013-3-2,77.0,77.0,77.0,72.0,70.5,69.0,83,79,75,29.97,29.94,14,12,0,0.00
2013-3-3,77.0,77.0,77.0,74.0,73.0,72.0,91,87,83,30.00,29.97,11,9,0,0.00
2013-3-4,80.0,78.7,77.0,74.0,73.7,73.0,91,85,84,30.01,29.93,23,18,0,0.00
2013-3-10,80.0,80.0,80.0,76.0,76.0,76.0,88,88,88,29.86,29.86,30,30,0,0.00
2013-3-11,81.0,80.4,79.0,76.0,75.0,74.0,87,84,80,29.93,29.84,28,26,0,0.00
2013-3-12,80.0,79.6,79.0,76.0,74.7,73.0,88,85,80,29.96,29.86,25,21,0,0.00
2013-3-13,80.0,79.6,79.0,75.0,74.4,74.0,87,85,84,29.92,29.85,34,30,0,0.00
2013-3-14,78.0,78.0,78.0,73.0,73.0,73.0,84,84,84,29.93,29.93,23,23,0,0.00
2013-3-15,78.0,77.2,77.0,72.0,71.8,71.0,83,82,80,29.99,29.88,26,18,0,0.00
2013-3-18,81.0,80.2,79.0,75.0,74.6,74.0,84,84,84,29.96,29.94,23,23,0,0.00
2013-3-23,79.0,79.0,79.0,74.0,74.0,74.0,84,84,84,29.98,29.98,24,24,0,0.00
2013-3-24,79.0,79.0,79.0,74.0,74.0,74.0,84,84,84,29.98,29.98,24,24,0,0.00
2013-3-25,79.0,78.4,78.0,75.0,74.6,74.0,91,88,84,30.03,30.03,25,24,0,0.00
2013-3-26,79.0,77.6,76.0,75.0,73.7,72.0,91,88,84,30.08,30.00,25,21,0,0.00
2013-3-27,76.0,75.0,74.0,73.0,72.1,72.0,91,90,87,30.12,30.01,23,16,0,0.00
2013-3-28,81.0,73.1,66.0,75.0,70.6,66.0,100,91,83,30.02,29.90,32,25,0,0.00
2013-3-29,73.0,68.3,66.0,68.0,66.8,65.0,100,94,82,29.96,29.90,22,16,0,0.00
2013-3-30,69.0,66.1,64.0,66.0,63.1,61.0,91,90,89,29.95,29.81,39,26,0,0.00
2013-3-31,64.0,64.0,64.0,61.0,61.0,61.0,89,89,89,29.81,29.81,39,39,0,0.00
2013-4-1,66.0,61.0,59.0,57.0,55.2,54.0,88,80,71,29.73,29.65,43,33,0,0.00
2013-4-2,60.0,56.3,54.0,54.0,52.9,52.0,93,87,78,29.71,29.62,29,20,0,0.00
2013-4-3,54.0,44.9,40.0,51.0,40.8,36.0,100,86,66,29.95,29.74,41,37,0,0.00
2013-4-5,50.0,49.5,49.0,47.0,45.5,44.0,93,86,78,30.06,30.03,28,26,0,0.00
2013-4-6,61.0,57.1,54.0,54.0,50.6,45.0,82,79,76,30.27,30.18,24,9,0,0.00
2013-4-7,54.0,54.0,54.0,51.0,51.0,51.0,89,89,89,30.15,30.15,3,3,0,0.00
2013-4-8,58.0,58.0,58.0,55.0,55.0,55.0,90,88,88,30.05,29.99,25,25,0,0.00
2013-4-9,65.0,62.8,59.0,58.0,57.0,56.0,94,82,74,29.96,29.89,18,15,0,0.00
2013-4-10,63.0,59.8,58.0,60.0,57.2,56.0,91,90,88,29.96,29.91,11,7,0,0.00
2013-4-12,61.0,61.0,61.0,58.0,58.0,58.0,89,89,89,29.97,29.97,25,25,0,0.00
2013-4-13,67.0,64.0,61.0,59.0,57.5,56.0,94,80,66,30.03,30.01,18,18,0,0.00
2013-4-14,62.0,61.0,60.0,55.0,54.5,54.0,83,78,74,30.07,30.05,23,20,0,0.00
2013-4-15,56.0,55.0,54.0,53.0,52.7,52.0,94,90,88,30.13,30.11,18,16,0,0.00
2013-4-20,57.0,48.3,44.0,37.0,37.0,37.0,77,67,46,30.52,30.46,46,24,0,0.00
2013-4-23,48.0,48.0,48.0,45.0,45.0,45.0,89,89,89,30.15,30.15,55,55,0,0.00
2013-4-28,56.0,51.4,48.0,39.0,38.4,38.0,67,60,50,30.13,30.10,10,9,0,0.00
2013-4-29,55.0,55.0,55.0,34.0,34.0,34.0,44,44,44,30.16,30.16,7,7,0,0.00
2013-4-30,56.0,55.4,55.0,48.0,46.2,45.0,76,70,66,30.01,29.94,37,32,0,0.00
2013-5-2,60.0,59.2,59.0,53.0,52.0,51.0,80,77,71,30.01,29.96,20,16,0,0.00
2013-5-4,64.0,64.0,64.0,60.0,60.0,60.0,86,86,86,29.93,29.93,16,16,0,0.00
2013-5-7,66.0,66.0,66.0,57.0,57.0,57.0,71,71,71,30.01,30.01,23,23,0,0.00
2013-5-8,68.0,67.0,66.0,55.0,51.0,47.0,67,57,47,30.01,29.98,14,11,0,0.00
2013-5-9,61.0,61.0,61.0,59.0,59.0,59.0,94,94,94,29.99,29.99,5,5,0,0.00
2013-5-10,56.0,54.7,54.0,50.0,45.0,42.0,80,70,64,30.20,30.09,31,25,0,0.00
2013-5-12,55.0,46.4,50.0,51.0,30.9,-99.9,87,82,74,30.23,30.13,32,29,0,0.00
2013-5-13,66.0,56.5,51.0,51.0,49.2,48.0,93,78,54,30.29,30.16,34,17,0,0.00
2013-5-14,63.0,61.0,59.0,56.0,53.5,51.0,75,74,73,30.11,30.11,29,28,0,0.00
2013-5-16,66.0,66.0,66.0,57.0,57.0,57.0,71,71,71,0.00,40.00,15,15,0,0.00
2013-5-19,63.0,63.0,63.0,47.0,47.0,47.0,56,56,56,30.21,30.21,20,20,0,0.00
2013-5-20,61.0,61.0,61.0,51.0,51.0,51.0,68,68,68,30.12,30.12,24,24,0,0.00
2013-5-21,58.0,58.0,58.0,49.0,49.0,49.0,72,72,72,30.05,30.05,34,34,0,0.00
2013-5-22,57.0,56.0,55.0,52.0,51.0,50.0,88,82,77,30.27,30.13,34,30,0,0.00
2013-5-23,53.0,52.5,52.0,45.0,40.0,35.0,75,63,51,30.19,30.13,38,34,0,0.00
2013-5-25,47.0,45.5,45.0,41.0,39.2,37.0,80,77,71,30.11,30.01,37,34,0,0.00
2013-5-26,47.0,47.0,47.0,41.0,41.0,41.0,79,79,79,29.95,29.95,28,28,0,0.00
2013-5-27,47.0,47.0,47.0,43.0,43.0,43.0,86,86,86,29.75,29.75,25,25,0,0.00
2013-5-29,57.0,57.0,57.0,48.0,48.0,48.0,72,72,72,29.81,29.81,23,23,0,0.00
2013-5-30,59.0,51.5,50.0,51.0,48.0,46.0,93,88,73,29.83,29.73,18,16,0,0.00
2013-6-1,54.0,54.0,54.0,50.0,50.0,50.0,88,88,88,30.33,30.29,30,26,0,0.00
2013-6-2,75.0,66.7,59.0,55.0,50.7,44.0,62,56,49,30.26,30.09,40,30,0,0.00
2013-6-3,67.0,66.1,65.0,59.0,57.3,56.0,80,73,67,29.94,29.87,34,25,0,0.00
2013-6-4,66.0,65.4,65.0,59.0,58.1,57.0,80,76,71,29.94,29.94,25,24,0,0.00
2013-6-5,66.0,65.4,64.0,60.0,57.9,57.0,85,75,71,29.99,29.89,31,24,0,0.00
2013-6-7,67.0,67.0,67.0,62.0,62.0,62.0,82,82,82,30.02,30.02,30,30,0,0.00
2013-6-8,68.0,68.0,68.0,65.0,65.0,65.0,90,90,90,29.90,29.90,22,22,0,0.00
2013-6-10,71.0,69.0,67.0,64.0,63.0,62.0,90,82,73,29.82,29.79,13,12,0,0.00
2013-6-11,71.0,69.5,68.0,60.0,56.5,53.0,76,64,53,29.85,29.83,20,18,0,0.00
2013-6-12,72.0,68.2,65.0,64.0,61.1,57.0,85,78,58,30.13,30.00,22,18,0,0.00
2013-6-13,72.0,70.0,68.0,66.0,64.8,60.0,90,84,81,30.11,29.98,18,12,0,0.00
2013-6-14,71.0,69.3,67.0,64.0,60.3,54.0,81,74,63,30.02,29.92,40,22,0,0.00
2013-6-15,63.0,61.2,59.0,53.0,51.5,51.0,73,70,65,30.13,30.04,40,18,0,0.00
2013-6-16,59.0,58.0,57.0,55.0,53.0,52.0,88,83,78,30.01,29.83,30,25,0,0.00
2013-6-18,58.0,56.5,55.0,54.0,53.5,53.0,94,88,83,30.02,29.86,22,18,0,0.00